sensor_id;sensor_type;location;lat;lon;timestamp;temperature;humidity
66670;DHT22;53568;52.164;4.472;2024-01-15T00:02:15;5.90;61.59
66670;DHT22;53568;52.164;4.472;2024-01-15T00:04:41;5.81;66.54
66670;DHT22;53568;52.164;4.472;2024-01-15T00:07:07;5.53;70.24
66670;DHT22;53568;52.164;4.472;2024-01-15T00:09:33;5.42;71.47
66670;DHT22;53568;52.164;4.472;2024-01-15T00:11:59;5.20;72.65
66670;DHT22;53568;52.164;4.472;2024-01-15T00:14:25;5.19;72.66
66670;DHT22;53568;52.164;4.472;2024-01-15T00:16:51;5.13;71.93
66670;DHT22;53568;52.164;4.472;2024-01-15T00:19:18;5.18;71.65
66670;DHT22;53568;52.164;4.472;2024-01-15T00:21:44;5.23;70.75
66670;DHT22;53568;52.164;4.472;2024-01-15T00:24:10;5.29;69.99
66670;DHT22;53568;52.164;4.472;2024-01-15T00:26:36;5.23;69.65
66670;DHT22;53568;52.164;4.472;2024-01-15T00:29:02;5.22;69.50
66670;DHT22;53568;52.164;4.472;2024-01-15T00:31:28;5.36;69.40
66670;DHT22;53568;52.164;4.472;2024-01-15T00:33:55;5.47;69.27
66670;DHT22;53568;52.164;4.472;2024-01-15T00:36:21;5.26;69.37
66670;DHT22;53568;52.164;4.472;2024-01-15T00:38:46;5.40;68.72
66670;DHT22;53568;52.164;4.472;2024-01-15T00:41:13;5.49;68.29
66670;DHT22;53568;52.164;4.472;2024-01-15T00:43:38;5.46;67.47
66670;DHT22;53568;52.164;4.472;2024-01-15T00:46:04;5.56;67.69
66670;DHT22;53568;52.164;4.472;2024-01-15T00:48:30;5.67;67.44
66670;DHT22;53568;52.164;4.472;2024-01-15T00:50:56;5.52;68.02
66670;DHT22;53568;52.164;4.472;2024-01-15T00:53:21;5.57;68.48
66670;DHT22;53568;52.164;4.472;2024-01-15T00:55:50;5.57;68.25
66670;DHT22;53568;52.164;4.472;2024-01-15T00:58:15;5.53;67.32
66670;DHT22;53568;52.164;4.472;2024-01-15T01:00:41;5.47;67.47
66670;DHT22;53568;52.164;4.472;2024-01-15T01:03:08;5.42;70.83
66670;DHT22;53568;52.164;4.472;2024-01-15T01:05:34;5.38;72.42
66670;DHT22;53568;52.164;4.472;2024-01-15T01:08:00;5.25;72.13
66670;DHT22;53568;52.164;4.472;2024-01-15T01:10:25;5.18;73.46
66670;DHT22;53568;52.164;4.472;2024-01-15T01:12:51;5.19;74.25
66670;DHT22;53568;52.164;4.472;2024-01-15T01:15:16;5.12;75.02
66670;DHT22;53568;52.164;4.472;2024-01-15T01:17:42;5.13;75.23
66670;DHT22;53568;52.164;4.472;2024-01-15T01:20:08;5.05;74.92
66670;DHT22;53568;52.164;4.472;2024-01-15T01:22:34;4.85;75.04
66670;DHT22;53568;52.164;4.472;2024-01-15T01:25:00;4.85;75.48
66670;DHT22;53568;52.164;4.472;2024-01-15T01:27:26;4.88;74.87
66670;DHT22;53568;52.164;4.472;2024-01-15T01:29:51;4.91;74.51
66670;DHT22;53568;52.164;4.472;2024-01-15T01:32:18;4.93;74.05
66670;DHT22;53568;52.164;4.472;2024-01-15T01:34:43;4.95;73.66
66670;DHT22;53568;52.164;4.472;2024-01-15T01:37:13;5.02;73.13
66670;DHT22;53568;52.164;4.472;2024-01-15T01:39:40;5.08;73.19
66670;DHT22;53568;52.164;4.472;2024-01-15T01:42:06;5.11;73.66
66670;DHT22;53568;52.164;4.472;2024-01-15T01:44:31;5.19;73.51
66670;DHT22;53568;52.164;4.472;2024-01-15T01:46:58;5.16;73.41
66670;DHT22;53568;52.164;4.472;2024-01-15T01:49:26;5.12;72.27
66670;DHT22;53568;52.164;4.472;2024-01-15T01:51:52;5.12;71.65
66670;DHT22;53568;52.164;4.472;2024-01-15T01:54:20;5.15;70.51
66670;DHT22;53568;52.164;4.472;2024-01-15T01:56:48;5.08;69.80
66670;DHT22;53568;52.164;4.472;2024-01-15T01:59:14;5.12;69.60
66670;DHT22;53568;52.164;4.472;2024-01-15T02:01:40;5.12;69.25
66670;DHT22;53568;52.164;4.472;2024-01-15T02:04:06;5.13;69.64
66670;DHT22;53568;52.164;4.472;2024-01-15T02:06:32;5.09;70.18
66670;DHT22;53568;52.164;4.472;2024-01-15T02:08:57;5.22;70.64
66670;DHT22;53568;52.164;4.472;2024-01-15T02:11:23;5.28;71.26
66670;DHT22;53568;52.164;4.472;2024-01-15T02:13:49;5.29;71.74
66670;DHT22;53568;52.164;4.472;2024-01-15T02:16:14;5.26;71.95
66670;DHT22;53568;52.164;4.472;2024-01-15T02:18:44;5.23;72.27
66670;DHT22;53568;52.164;4.472;2024-01-15T02:21:10;5.26;71.82
66670;DHT22;53568;52.164;4.472;2024-01-15T02:23:37;5.32;71.75
66670;DHT22;53568;52.164;4.472;2024-01-15T02:26:05;5.15;71.76
66670;DHT22;53568;52.164;4.472;2024-01-15T02:28:30;5.19;71.56
66670;DHT22;53568;52.164;4.472;2024-01-15T02:30:58;5.12;71.96
66670;DHT22;53568;52.164;4.472;2024-01-15T02:33:23;5.13;72.61
66670;DHT22;53568;52.164;4.472;2024-01-15T02:35:49;5.11;73.82
66670;DHT22;53568;52.164;4.472;2024-01-15T02:38:18;5.12;74.63
66670;DHT22;53568;52.164;4.472;2024-01-15T02:40:45;5.22;74.77
66670;DHT22;53568;52.164;4.472;2024-01-15T02:43:11;5.22;75.10
66670;DHT22;53568;52.164;4.472;2024-01-15T02:45:37;5.25;75.10
66670;DHT22;53568;52.164;4.472;2024-01-15T02:48:03;5.35;75.06
66670;DHT22;53568;52.164;4.472;2024-01-15T02:50:28;5.38;74.95
66670;DHT22;53568;52.164;4.472;2024-01-15T02:52:54;5.33;74.66
66670;DHT22;53568;52.164;4.472;2024-01-15T02:55:19;5.32;73.05
66670;DHT22;53568;52.164;4.472;2024-01-15T02:57:45;5.36;71.02
66670;DHT22;53568;52.164;4.472;2024-01-15T03:00:11;5.44;69.07
66670;DHT22;53568;52.164;4.472;2024-01-15T03:02:38;5.52;68.71
66670;DHT22;53568;52.164;4.472;2024-01-15T03:05:09;5.53;68.74
66670;DHT22;53568;52.164;4.472;2024-01-15T03:07:35;5.59;68.90
66670;DHT22;53568;52.164;4.472;2024-01-15T03:10:00;5.53;70.01
66670;DHT22;53568;52.164;4.472;2024-01-15T03:12:26;5.15;72.44
66670;DHT22;53568;52.164;4.472;2024-01-15T03:14:51;4.92;74.49
66670;DHT22;53568;52.164;4.472;2024-01-15T03:17:17;4.41;75.32
66670;DHT22;53568;52.164;4.472;2024-01-15T03:19:42;4.18;75.92
66670;DHT22;53568;52.164;4.472;2024-01-15T03:22:08;4.11;76.78
66670;DHT22;53568;52.164;4.472;2024-01-15T03:24:35;4.29;77.73
66670;DHT22;53568;52.164;4.472;2024-01-15T03:27:01;4.45;77.93
66670;DHT22;53568;52.164;4.472;2024-01-15T03:29:26;4.45;77.60
66670;DHT22;53568;52.164;4.472;2024-01-15T03:31:52;4.50;76.72
66670;DHT22;53568;52.164;4.472;2024-01-15T03:34:18;4.45;76.16
66670;DHT22;53568;52.164;4.472;2024-01-15T03:36:44;4.44;76.21
66670;DHT22;53568;52.164;4.472;2024-01-15T03:39:09;4.34;76.49
66670;DHT22;53568;52.164;4.472;2024-01-15T03:41:35;4.41;76.87
66670;DHT22;53568;52.164;4.472;2024-01-15T03:44:01;4.33;77.71
66670;DHT22;53568;52.164;4.472;2024-01-15T03:46:27;4.22;78.96
66670;DHT22;53568;52.164;4.472;2024-01-15T03:48:52;4.14;80.00
66670;DHT22;53568;52.164;4.472;2024-01-15T03:51:18;4.25;80.43
66670;DHT22;53568;52.164;4.472;2024-01-15T03:53:44;4.31;80.94
66670;DHT22;53568;52.164;4.472;2024-01-15T03:56:09;4.55;80.43
66670;DHT22;53568;52.164;4.472;2024-01-15T03:58:35;4.65;80.29
66670;DHT22;53568;52.164;4.472;2024-01-15T04:01:00;4.68;80.16
66670;DHT22;53568;52.164;4.472;2024-01-15T04:03:26;4.84;79.83
66670;DHT22;53568;52.164;4.472;2024-01-15T04:05:51;4.81;79.38
66670;DHT22;53568;52.164;4.472;2024-01-15T04:08:17;4.91;79.02
66670;DHT22;53568;52.164;4.472;2024-01-15T04:10:42;4.91;78.46
66670;DHT22;53568;52.164;4.472;2024-01-15T04:13:08;4.92;77.24
66670;DHT22;53568;52.164;4.472;2024-01-15T04:15:33;4.88;75.96
66670;DHT22;53568;52.164;4.472;2024-01-15T04:17:59;4.95;75.91
66670;DHT22;53568;52.164;4.472;2024-01-15T04:20:26;4.96;76.08
66670;DHT22;53568;52.164;4.472;2024-01-15T04:22:52;5.08;75.68
66670;DHT22;53568;52.164;4.472;2024-01-15T04:25:17;5.08;75.84
66670;DHT22;53568;52.164;4.472;2024-01-15T04:27:43;5.16;75.32
66670;DHT22;53568;52.164;4.472;2024-01-15T04:30:09;4.98;76.47
66670;DHT22;53568;52.164;4.472;2024-01-15T04:32:34;4.98;77.14
66670;DHT22;53568;52.164;4.472;2024-01-15T04:35:00;4.93;78.03
66670;DHT22;53568;52.164;4.472;2024-01-15T04:37:25;4.78;77.33
66670;DHT22;53568;52.164;4.472;2024-01-15T04:39:51;4.72;77.17
66670;DHT22;53568;52.164;4.472;2024-01-15T04:42:20;4.71;77.01
66670;DHT22;53568;52.164;4.472;2024-01-15T04:44:46;4.55;75.05
66670;DHT22;53568;52.164;4.472;2024-01-15T04:47:11;4.61;74.13
66670;DHT22;53568;52.164;4.472;2024-01-15T04:49:37;4.69;72.66
66670;DHT22;53568;52.164;4.472;2024-01-15T04:52:03;4.76;71.39
66670;DHT22;53568;52.164;4.472;2024-01-15T04:54:28;4.86;70.92
66670;DHT22;53568;52.164;4.472;2024-01-15T04:56:53;4.85;71.60
66670;DHT22;53568;52.164;4.472;2024-01-15T04:59:19;4.88;72.43
66670;DHT22;53568;52.164;4.472;2024-01-15T05:01:44;4.99;73.32
66670;DHT22;53568;52.164;4.472;2024-01-15T05:04:10;4.95;73.81
66670;DHT22;53568;52.164;4.472;2024-01-15T05:06:35;4.92;74.77
66670;DHT22;53568;52.164;4.472;2024-01-15T05:09:01;4.91;75.43
66670;DHT22;53568;52.164;4.472;2024-01-15T05:11:26;4.88;76.34
66670;DHT22;53568;52.164;4.472;2024-01-15T05:13:52;4.82;76.89
66670;DHT22;53568;52.164;4.472;2024-01-15T05:16:17;4.74;77.21
66670;DHT22;53568;52.164;4.472;2024-01-15T05:18:43;4.65;77.66
66670;DHT22;53568;52.164;4.472;2024-01-15T05:21:08;4.60;78.24
66670;DHT22;53568;52.164;4.472;2024-01-15T05:23:34;4.57;78.73
66670;DHT22;53568;52.164;4.472;2024-01-15T05:25:59;4.69;78.41
66670;DHT22;53568;52.164;4.472;2024-01-15T05:28:25;4.71;78.28
66670;DHT22;53568;52.164;4.472;2024-01-15T05:30:50;4.76;78.24
66670;DHT22;53568;52.164;4.472;2024-01-15T05:33:16;4.89;78.04
66670;DHT22;53568;52.164;4.472;2024-01-15T05:35:42;4.93;78.18
66670;DHT22;53568;52.164;4.472;2024-01-15T05:38:08;4.89;78.79
66670;DHT22;53568;52.164;4.472;2024-01-15T05:40:33;4.91;78.78
66670;DHT22;53568;52.164;4.472;2024-01-15T05:42:59;4.91;78.92
66670;DHT22;53568;52.164;4.472;2024-01-15T05:45:29;4.92;78.92
66670;DHT22;53568;52.164;4.472;2024-01-15T05:47:55;4.96;78.69
66670;DHT22;53568;52.164;4.472;2024-01-15T05:50:21;5.00;78.43
66670;DHT22;53568;52.164;4.472;2024-01-15T05:52:47;5.02;77.98
66670;DHT22;53568;52.164;4.472;2024-01-15T05:55:13;4.95;76.56
66670;DHT22;53568;52.164;4.472;2024-01-15T05:57:38;4.81;75.79
66670;DHT22;53568;52.164;4.472;2024-01-15T06:00:05;4.54;74.15
66670;DHT22;53568;52.164;4.472;2024-01-15T06:02:30;4.34;74.24
66670;DHT22;53568;52.164;4.472;2024-01-15T06:04:56;4.21;73.86
66670;DHT22;53568;52.164;4.472;2024-01-15T06:07:22;4.14;74.76
66670;DHT22;53568;52.164;4.472;2024-01-15T06:09:48;4.13;74.75
66670;DHT22;53568;52.164;4.472;2024-01-15T06:12:13;4.11;75.77
66670;DHT22;53568;52.164;4.472;2024-01-15T06:14:39;4.11;76.66
66670;DHT22;53568;52.164;4.472;2024-01-15T06:17:04;3.89;78.08
66670;DHT22;53568;52.164;4.472;2024-01-15T06:19:30;3.72;78.73
66670;DHT22;53568;52.164;4.472;2024-01-15T06:21:55;3.69;78.67
66670;DHT22;53568;52.164;4.472;2024-01-15T06:24:21;3.72;79.22
66670;DHT22;53568;52.164;4.472;2024-01-15T06:26:47;3.83;78.96
66670;DHT22;53568;52.164;4.472;2024-01-15T06:29:12;3.89;79.33
66670;DHT22;53568;52.164;4.472;2024-01-15T06:31:38;3.91;79.25
66670;DHT22;53568;52.164;4.472;2024-01-15T06:34:04;3.97;78.89
66670;DHT22;53568;52.164;4.472;2024-01-15T06:36:29;3.87;78.86
66670;DHT22;53568;52.164;4.472;2024-01-15T06:38:55;3.91;79.15
66670;DHT22;53568;52.164;4.472;2024-01-15T06:41:21;4.04;79.03
66670;DHT22;53568;52.164;4.472;2024-01-15T06:43:47;3.91;79.60
66670;DHT22;53568;52.164;4.472;2024-01-15T06:46:13;3.65;80.56
66670;DHT22;53568;52.164;4.472;2024-01-15T06:48:44;3.35;81.74
66670;DHT22;53568;52.164;4.472;2024-01-15T06:51:10;3.04;81.99
66670;DHT22;53568;52.164;4.472;2024-01-15T06:53:35;2.89;82.54
66670;DHT22;53568;52.164;4.472;2024-01-15T06:56:00;2.95;82.53
66670;DHT22;53568;52.164;4.472;2024-01-15T06:58:26;2.98;82.30
66670;DHT22;53568;52.164;4.472;2024-01-15T07:00:51;3.05;82.01
66670;DHT22;53568;52.164;4.472;2024-01-15T07:03:17;3.15;81.84
66670;DHT22;53568;52.164;4.472;2024-01-15T07:05:43;3.22;82.05
66670;DHT22;53568;52.164;4.472;2024-01-15T07:08:08;3.40;81.67
66670;DHT22;53568;52.164;4.472;2024-01-15T07:10:34;3.56;81.05
66670;DHT22;53568;52.164;4.472;2024-01-15T07:12:59;3.66;80.96
66670;DHT22;53568;52.164;4.472;2024-01-15T07:15:25;3.79;80.45
66670;DHT22;53568;52.164;4.472;2024-01-15T07:17:50;3.97;80.41
66670;DHT22;53568;52.164;4.472;2024-01-15T07:20:16;4.14;80.04
66670;DHT22;53568;52.164;4.472;2024-01-15T07:22:42;4.30;79.26
66670;DHT22;53568;52.164;4.472;2024-01-15T07:25:08;4.36;78.86
66670;DHT22;53568;52.164;4.472;2024-01-15T07:27:33;4.37;78.64
66670;DHT22;53568;52.164;4.472;2024-01-15T07:29:59;4.20;79.06
66670;DHT22;53568;52.164;4.472;2024-01-15T07:32:24;4.14;79.41
66670;DHT22;53568;52.164;4.472;2024-01-15T07:34:50;4.25;79.53
66670;DHT22;53568;52.164;4.472;2024-01-15T07:37:16;4.22;79.65
66670;DHT22;53568;52.164;4.472;2024-01-15T07:39:41;4.37;79.13
66670;DHT22;53568;52.164;4.472;2024-01-15T07:42:07;4.31;78.06
66670;DHT22;53568;52.164;4.472;2024-01-15T07:44:33;4.25;77.19
66670;DHT22;53568;52.164;4.472;2024-01-15T07:46:58;4.43;76.92
66670;DHT22;53568;52.164;4.472;2024-01-15T07:49:24;4.43;76.55
66670;DHT22;53568;52.164;4.472;2024-01-15T07:51:50;4.45;74.70
66670;DHT22;53568;52.164;4.472;2024-01-15T07:54:15;4.51;71.89
66670;DHT22;53568;52.164;4.472;2024-01-15T07:57:00;4.58;70.89
66670;DHT22;53568;52.164;4.472;2024-01-15T07:59:27;4.65;71.23
66670;DHT22;53568;52.164;4.472;2024-01-15T08:01:52;4.71;68.29
66670;DHT22;53568;52.164;4.472;2024-01-15T08:04:18;4.78;73.33
66670;DHT22;53568;52.164;4.472;2024-01-15T08:06:45;4.78;75.05
66670;DHT22;53568;52.164;4.472;2024-01-15T08:09:11;4.62;75.00
66670;DHT22;53568;52.164;4.472;2024-01-15T08:11:39;4.75;74.47
66670;DHT22;53568;52.164;4.472;2024-01-15T08:14:06;4.54;74.91
66670;DHT22;53568;52.164;4.472;2024-01-15T08:16:32;4.54;75.27
66670;DHT22;53568;52.164;4.472;2024-01-15T08:18:57;4.64;74.95
66670;DHT22;53568;52.164;4.472;2024-01-15T08:21:23;4.67;74.94
66670;DHT22;53568;52.164;4.472;2024-01-15T08:23:49;4.69;75.00
66670;DHT22;53568;52.164;4.472;2024-01-15T08:26:14;4.65;73.79
66670;DHT22;53568;52.164;4.472;2024-01-15T08:28:40;4.74;71.14
66670;DHT22;53568;52.164;4.472;2024-01-15T08:31:05;4.76;70.30
66670;DHT22;53568;52.164;4.472;2024-01-15T08:33:31;4.67;69.74
66670;DHT22;53568;52.164;4.472;2024-01-15T08:35:56;4.69;71.25
66670;DHT22;53568;52.164;4.472;2024-01-15T08:38:22;4.16;75.92
66670;DHT22;53568;52.164;4.472;2024-01-15T08:40:48;3.72;78.30
66670;DHT22;53568;52.164;4.472;2024-01-15T08:43:14;3.51;79.71
66670;DHT22;53568;52.164;4.472;2024-01-15T08:45:40;3.53;79.94
66670;DHT22;53568;52.164;4.472;2024-01-15T08:48:05;3.45;80.61
66670;DHT22;53568;52.164;4.472;2024-01-15T08:50:32;3.60;80.47
66670;DHT22;53568;52.164;4.472;2024-01-15T08:52:59;3.70;80.29
66670;DHT22;53568;52.164;4.472;2024-01-15T08:55:24;3.58;80.49
66670;DHT22;53568;52.164;4.472;2024-01-15T08:57:50;3.59;80.31
66670;DHT22;53568;52.164;4.472;2024-01-15T09:00:17;3.65;80.00
66670;DHT22;53568;52.164;4.472;2024-01-15T09:02:42;3.70;79.39
66670;DHT22;53568;52.164;4.472;2024-01-15T09:05:08;3.70;78.47
66670;DHT22;53568;52.164;4.472;2024-01-15T09:07:33;3.76;78.07
66670;DHT22;53568;52.164;4.472;2024-01-15T09:09:59;3.93;77.40
66670;DHT22;53568;52.164;4.472;2024-01-15T09:12:26;4.11;76.58
66670;DHT22;53568;52.164;4.472;2024-01-15T09:14:51;4.09;76.82
66670;DHT22;53568;52.164;4.472;2024-01-15T09:17:20;4.06;77.13
66670;DHT22;53568;52.164;4.472;2024-01-15T09:19:45;3.87;77.36
66670;DHT22;53568;52.164;4.472;2024-01-15T09:22:12;3.69;78.48
66670;DHT22;53568;52.164;4.472;2024-01-15T09:24:40;3.51;77.27
66670;DHT22;53568;52.164;4.472;2024-01-15T09:27:07;3.42;76.44
66670;DHT22;53568;52.164;4.472;2024-01-15T09:29:32;3.56;75.88
66670;DHT22;53568;52.164;4.472;2024-01-15T09:31:58;3.73;76.09
66670;DHT22;53568;52.164;4.472;2024-01-15T09:34:24;3.89;76.39
66670;DHT22;53568;52.164;4.472;2024-01-15T09:36:49;4.00;76.16
66670;DHT22;53568;52.164;4.472;2024-01-15T09:39:15;4.10;76.14
66670;DHT22;53568;52.164;4.472;2024-01-15T09:41:41;4.25;75.81
66670;DHT22;53568;52.164;4.472;2024-01-15T09:44:08;4.40;75.74
66670;DHT22;53568;52.164;4.472;2024-01-15T09:46:35;4.48;75.15
66670;DHT22;53568;52.164;4.472;2024-01-15T09:49:01;4.64;74.88
66670;DHT22;53568;52.164;4.472;2024-01-15T09:51:33;4.64;74.94
66670;DHT22;53568;52.164;4.472;2024-01-15T09:53:59;4.60;74.81
66670;DHT22;53568;52.164;4.472;2024-01-15T09:56:24;4.74;74.79
66670;DHT22;53568;52.164;4.472;2024-01-15T09:58:50;4.91;74.64
66670;DHT22;53568;52.164;4.472;2024-01-15T10:01:20;4.98;74.66
66670;DHT22;53568;52.164;4.472;2024-01-15T10:03:46;5.06;74.50
66670;DHT22;53568;52.164;4.472;2024-01-15T10:06:16;4.93;73.82
66670;DHT22;53568;52.164;4.472;2024-01-15T10:08:49;4.75;75.16
66670;DHT22;53568;52.164;4.472;2024-01-15T10:11:15;4.51;76.56
66670;DHT22;53568;52.164;4.472;2024-01-15T10:13:43;4.38;77.81
66670;DHT22;53568;52.164;4.472;2024-01-15T10:16:09;4.04;76.67
66670;DHT22;53568;52.164;4.472;2024-01-15T10:18:36;3.67;78.05
66670;DHT22;53568;52.164;4.472;2024-01-15T10:21:05;3.58;79.90
66670;DHT22;53568;52.164;4.472;2024-01-15T10:23:34;3.69;79.86
66670;DHT22;53568;52.164;4.472;2024-01-15T10:26:02;3.82;79.33
66670;DHT22;53568;52.164;4.472;2024-01-15T10:28:28;3.82;78.92
66670;DHT22;53568;52.164;4.472;2024-01-15T10:30:57;3.93;79.31
66670;DHT22;53568;52.164;4.472;2024-01-15T10:33:25;4.10;78.74
66670;DHT22;53568;52.164;4.472;2024-01-15T10:35:57;4.18;77.20
66670;DHT22;53568;52.164;4.472;2024-01-15T10:38:25;4.31;75.64
66670;DHT22;53568;52.164;4.472;2024-01-15T10:40:54;4.38;75.03
66670;DHT22;53568;52.164;4.472;2024-01-15T10:43:21;4.53;75.11
66670;DHT22;53568;52.164;4.472;2024-01-15T10:45:48;4.57;74.76
66670;DHT22;53568;52.164;4.472;2024-01-15T10:48:18;4.74;74.69
66670;DHT22;53568;52.164;4.472;2024-01-15T10:50:44;4.76;73.42
66670;DHT22;53568;52.164;4.472;2024-01-15T10:53:13;4.58;72.79
66670;DHT22;53568;52.164;4.472;2024-01-15T10:55:41;4.78;72.76
66670;DHT22;53568;52.164;4.472;2024-01-15T10:58:08;4.89;72.54
66670;DHT22;53568;52.164;4.472;2024-01-15T11:00:38;4.84;72.89
66670;DHT22;53568;52.164;4.472;2024-01-15T11:03:06;4.99;72.62
66670;DHT22;53568;52.164;4.472;2024-01-15T11:05:44;5.05;71.76
66670;DHT22;53568;52.164;4.472;2024-01-15T11:08:10;5.09;71.64
66670;DHT22;53568;52.164;4.472;2024-01-15T11:10:46;5.00;71.60
66670;DHT22;53568;52.164;4.472;2024-01-15T11:13:24;5.09;71.16
66670;DHT22;53568;52.164;4.472;2024-01-15T11:18:43;4.84;75.56
66670;DHT22;53568;52.164;4.472;2024-01-15T11:23:57;4.40;78.85
66670;DHT22;53568;52.164;4.472;2024-01-15T11:26:45;4.40;79.43
66670;DHT22;53568;52.164;4.472;2024-01-15T11:29:32;4.20;79.83
66670;DHT22;53568;52.164;4.472;2024-01-15T11:32:04;4.01;80.61
66670;DHT22;53568;52.164;4.472;2024-01-15T11:34:53;3.99;79.53
66670;DHT22;53568;52.164;4.472;2024-01-15T11:37:20;4.01;78.66
66670;DHT22;53568;52.164;4.472;2024-01-15T11:39:48;4.16;77.90
66670;DHT22;53568;52.164;4.472;2024-01-15T11:42:14;4.11;77.61
66670;DHT22;53568;52.164;4.472;2024-01-15T11:44:41;4.01;77.73
66670;DHT22;53568;52.164;4.472;2024-01-15T11:47:09;4.00;76.74
66670;DHT22;53568;52.164;4.472;2024-01-15T11:50:02;3.93;77.12
66670;DHT22;53568;52.164;4.472;2024-01-15T11:52:35;3.82;77.98
66670;DHT22;53568;52.164;4.472;2024-01-15T11:55:12;3.73;78.61
66670;DHT22;53568;52.164;4.472;2024-01-15T11:57:47;3.80;77.94
66670;DHT22;53568;52.164;4.472;2024-01-15T12:00:14;3.89;77.03
66670;DHT22;53568;52.164;4.472;2024-01-15T12:02:45;3.80;76.34
66670;DHT22;53568;52.164;4.472;2024-01-15T12:05:13;3.91;76.20
66670;DHT22;53568;52.164;4.472;2024-01-15T12:07:43;4.06;75.17
66670;DHT22;53568;52.164;4.472;2024-01-15T12:10:15;4.09;74.97
66670;DHT22;53568;52.164;4.472;2024-01-15T12:13:10;3.99;75.03
66670;DHT22;53568;52.164;4.472;2024-01-15T12:15:36;4.01;75.08
66670;DHT22;53568;52.164;4.472;2024-01-15T12:18:02;4.13;74.63
66670;DHT22;53568;52.164;4.472;2024-01-15T12:20:29;4.22;74.63
66670;DHT22;53568;52.164;4.472;2024-01-15T12:22:55;4.43;74.32
66670;DHT22;53568;52.164;4.472;2024-01-15T12:25:24;4.64;73.53
66670;DHT22;53568;52.164;4.472;2024-01-15T12:27:53;4.68;71.96
66670;DHT22;53568;52.164;4.472;2024-01-15T12:30:18;4.72;69.33
66670;DHT22;53568;52.164;4.472;2024-01-15T12:32:44;4.85;66.77
66670;DHT22;53568;52.164;4.472;2024-01-15T12:35:10;4.96;63.44
66670;DHT22;53568;52.164;4.472;2024-01-15T12:37:39;5.13;63.96
66670;DHT22;53568;52.164;4.472;2024-01-15T12:40:06;5.20;62.69
66670;DHT22;53568;52.164;4.472;2024-01-15T12:42:33;5.20;61.77
66670;DHT22;53568;52.164;4.472;2024-01-15T12:45:05;5.25;61.73
66670;DHT22;53568;52.164;4.472;2024-01-15T12:47:31;5.42;62.41
66670;DHT22;53568;52.164;4.472;2024-01-15T12:49:58;5.54;63.01
66670;DHT22;53568;52.164;4.472;2024-01-15T12:52:27;5.49;63.72
66670;DHT22;53568;52.164;4.472;2024-01-15T12:54:53;5.57;64.49
66670;DHT22;53568;52.164;4.472;2024-01-15T12:57:18;5.22;66.12
66670;DHT22;53568;52.164;4.472;2024-01-15T12:59:44;4.78;68.39
66670;DHT22;53568;52.164;4.472;2024-01-15T13:02:11;4.44;69.91
66670;DHT22;53568;52.164;4.472;2024-01-15T13:04:37;4.16;70.55
66670;DHT22;53568;52.164;4.472;2024-01-15T13:07:02;3.91;70.58
66670;DHT22;53568;52.164;4.472;2024-01-15T13:09:28;3.86;70.69
66670;DHT22;53568;52.164;4.472;2024-01-15T13:11:55;3.89;71.01
66670;DHT22;53568;52.164;4.472;2024-01-15T13:14:21;3.83;70.83
66670;DHT22;53568;52.164;4.472;2024-01-15T13:16:46;3.91;70.84
66670;DHT22;53568;52.164;4.472;2024-01-15T13:19:15;4.00;70.43
66670;DHT22;53568;52.164;4.472;2024-01-15T13:21:41;4.01;70.23
66670;DHT22;53568;52.164;4.472;2024-01-15T13:24:07;4.13;69.46
66670;DHT22;53568;52.164;4.472;2024-01-15T13:26:33;4.21;68.94
66670;DHT22;53568;52.164;4.472;2024-01-15T13:29:00;4.33;68.90
66670;DHT22;53568;52.164;4.472;2024-01-15T13:31:27;4.54;67.89
66670;DHT22;53568;52.164;4.472;2024-01-15T13:33:53;4.65;67.56
66670;DHT22;53568;52.164;4.472;2024-01-15T13:36:18;4.79;67.99
66670;DHT22;53568;52.164;4.472;2024-01-15T13:38:46;4.82;68.07
66670;DHT22;53568;52.164;4.472;2024-01-15T13:41:12;4.76;68.25
66670;DHT22;53568;52.164;4.472;2024-01-15T13:43:37;4.67;69.30
66670;DHT22;53568;52.164;4.472;2024-01-15T13:46:03;4.64;71.17
66670;DHT22;53568;52.164;4.472;2024-01-15T13:48:30;4.64;71.83
66670;DHT22;53568;52.164;4.472;2024-01-15T13:50:57;4.54;71.84
66670;DHT22;53568;52.164;4.472;2024-01-15T13:53:23;4.61;70.01
66670;DHT22;53568;52.164;4.472;2024-01-15T13:55:48;4.76;68.74
66670;DHT22;53568;52.164;4.472;2024-01-15T13:58:14;4.96;68.52
66670;DHT22;53568;52.164;4.472;2024-01-15T14:00:39;5.00;67.81
66670;DHT22;53568;52.164;4.472;2024-01-15T14:03:05;5.18;66.74
66670;DHT22;53568;52.164;4.472;2024-01-15T14:05:30;5.22;65.55
66670;DHT22;53568;52.164;4.472;2024-01-15T14:07:56;5.12;65.27
66670;DHT22;53568;52.164;4.472;2024-01-15T14:10:21;5.16;63.22
66670;DHT22;53568;52.164;4.472;2024-01-15T14:12:47;5.25;63.39
66670;DHT22;53568;52.164;4.472;2024-01-15T14:15:12;5.26;62.88
66670;DHT22;53568;52.164;4.472;2024-01-15T14:17:38;5.43;63.20
66670;DHT22;53568;52.164;4.472;2024-01-15T14:20:04;5.50;62.51
66670;DHT22;53568;52.164;4.472;2024-01-15T14:22:30;5.42;60.88
66670;DHT22;53568;52.164;4.472;2024-01-15T14:24:56;5.32;58.67
66670;DHT22;53568;52.164;4.472;2024-01-15T14:27:21;5.23;58.36
66670;DHT22;53568;52.164;4.472;2024-01-15T14:29:47;5.22;59.13
66670;DHT22;53568;52.164;4.472;2024-01-15T14:32:12;5.28;59.81
66670;DHT22;53568;52.164;4.472;2024-01-15T14:34:38;5.26;59.63
66670;DHT22;53568;52.164;4.472;2024-01-15T14:37:04;5.32;60.16
66670;DHT22;53568;52.164;4.472;2024-01-15T14:39:29;5.25;63.57
66670;DHT22;53568;52.164;4.472;2024-01-15T14:41:57;4.85;66.19
66670;DHT22;53568;52.164;4.472;2024-01-15T14:44:22;4.81;65.08
66670;DHT22;53568;52.164;4.472;2024-01-15T14:46:48;4.84;64.37
66670;DHT22;53568;52.164;4.472;2024-01-15T14:49:13;4.89;63.45
66670;DHT22;53568;52.164;4.472;2024-01-15T14:51:39;4.98;62.88
66670;DHT22;53568;52.164;4.472;2024-01-15T14:54:05;5.08;62.73
66670;DHT22;53568;52.164;4.472;2024-01-15T14:56:30;5.12;62.13
66670;DHT22;53568;52.164;4.472;2024-01-15T14:58:56;5.09;65.34
66670;DHT22;53568;52.164;4.472;2024-01-15T15:01:22;4.86;66.86
66670;DHT22;53568;52.164;4.472;2024-01-15T15:03:48;4.61;66.69
66670;DHT22;53568;52.164;4.472;2024-01-15T15:06:13;4.54;65.76
66670;DHT22;53568;52.164;4.472;2024-01-15T15:08:39;4.62;65.22
66670;DHT22;53568;52.164;4.472;2024-01-15T15:11:06;4.65;65.69
66670;DHT22;53568;52.164;4.472;2024-01-15T15:13:31;4.69;65.87
66670;DHT22;53568;52.164;4.472;2024-01-15T15:15:57;4.72;66.54
66670;DHT22;53568;52.164;4.472;2024-01-15T15:18:22;4.75;66.98
66670;DHT22;53568;52.164;4.472;2024-01-15T15:20:48;4.78;66.87
66670;DHT22;53568;52.164;4.472;2024-01-15T15:23:15;4.84;67.71
66670;DHT22;53568;52.164;4.472;2024-01-15T15:25:40;4.99;69.93
66670;DHT22;53568;52.164;4.472;2024-01-15T15:28:09;4.99;70.39
66670;DHT22;53568;52.164;4.472;2024-01-15T15:30:37;4.79;67.69
66670;DHT22;53568;52.164;4.472;2024-01-15T15:33:02;4.82;68.44
66670;DHT22;53568;52.164;4.472;2024-01-15T15:35:28;4.79;69.50
66670;DHT22;53568;52.164;4.472;2024-01-15T15:37:54;4.71;70.68
66670;DHT22;53568;52.164;4.472;2024-01-15T15:40:20;4.74;70.08
66670;DHT22;53568;52.164;4.472;2024-01-15T15:42:46;4.72;70.11
66670;DHT22;53568;52.164;4.472;2024-01-15T15:45:12;4.72;69.98
66670;DHT22;53568;52.164;4.472;2024-01-15T15:47:38;4.61;69.95